createdAt,value
2019-05-29T00:00:16.332Z,2.17
2019-05-29T00:02:45.050Z,1.60
2019-05-29T00:05:14.310Z,1.40
2019-05-29T00:07:43.002Z,1.77
2019-05-29T00:10:12.337Z,1.53
2019-05-29T00:12:40.976Z,1.97
2019-05-29T00:15:12.396Z,1.80
2019-05-29T00:17:41.439Z,2.07
2019-05-29T00:20:10.684Z,1.73
2019-05-29T00:22:42.331Z,1.53
2019-05-29T00:25:11.164Z,2.53
2019-05-29T00:27:41.572Z,1.60
2019-05-29T00:30:10.764Z,2.30
2019-05-29T00:32:39.673Z,1.43
2019-05-29T00:35:12.268Z,1.47
2019-05-29T00:37:40.997Z,1.60
2019-05-29T00:40:10.919Z,1.97
2019-05-29T00:42:39.583Z,1.50
2019-05-29T00:45:13.389Z,1.17
2019-05-29T00:47:42.550Z,2.00
2019-05-29T00:50:12.385Z,1.50
2019-05-29T00:52:41.218Z,1.80
2019-05-29T00:55:12.480Z,1.90
2019-05-29T00:57:41.166Z,1.93
2019-05-29T01:00:13.152Z,2.37
2019-05-29T01:02:41.934Z,1.63
2019-05-29T01:05:12.309Z,2.27
2019-05-29T01:07:43.640Z,2.40
2019-05-29T01:10:13.152Z,1.90
2019-05-29T01:12:42.149Z,1.77
2019-05-29T01:15:15.364Z,2.10
2019-05-29T01:17:44.053Z,2.47
2019-05-29T01:20:14.006Z,1.93
2019-05-29T01:22:42.985Z,1.93
2019-05-29T01:25:12.826Z,1.30
2019-05-29T01:27:41.472Z,2.30
2019-05-29T01:30:13.131Z,1.63
2019-05-29T01:32:41.970Z,1.20
2019-05-29T01:35:12.188Z,1.50
2019-05-29T01:37:43.933Z,1.70
2019-05-29T01:40:21.076Z,1.40
2019-05-29T01:42:44.943Z,1.50
2019-05-29T01:45:13.764Z,1.83
2019-05-29T01:47:42.344Z,1.77
2019-05-29T01:50:11.189Z,1.40
2019-05-29T01:52:41.348Z,1.50
2019-05-29T01:55:10.088Z,1.77
2019-05-29T01:57:40.757Z,1.07
2019-05-29T02:00:10.757Z,1.57
2019-05-29T02:02:42.264Z,1.80
2019-05-29T02:05:13.950Z,1.90
2019-05-29T02:07:42.773Z,1.53
2019-05-29T02:10:11.621Z,2.33
2019-05-29T02:12:40.581Z,1.63
2019-05-29T02:15:23.119Z,1.33
2019-05-29T02:17:43.387Z,1.20
2019-05-29T02:20:12.403Z,1.50
2019-05-29T02:22:41.117Z,1.70
2019-05-29T02:25:10.263Z,1.00
2019-05-29T02:27:40.546Z,1.23
2019-05-29T02:30:09.973Z,1.43
2019-05-29T02:32:40.500Z,1.43
2019-05-29T02:35:09.501Z,1.67
2019-05-29T02:37:40.624Z,1.23
2019-05-29T02:40:12.495Z,1.70
2019-05-29T02:42:41.594Z,1.63
2019-05-29T02:45:13.093Z,1.30
2019-05-29T02:47:41.756Z,1.67
2019-05-29T02:50:10.726Z,1.40
2019-05-29T02:52:42.725Z,1.30
2019-05-29T02:55:11.863Z,1.30
2019-05-29T02:57:40.548Z,2.20
2019-05-29T03:00:09.697Z,1.57
2019-05-29T03:02:41.102Z,1.17
2019-05-29T03:05:11.305Z,1.83
2019-05-29T03:07:41.425Z,1.50
2019-05-29T03:10:13.369Z,1.30
2019-05-29T03:12:42.242Z,1.30
2019-05-29T03:15:14.304Z,1.17
2019-05-29T03:17:42.899Z,1.47
2019-05-29T03:20:11.972Z,2.00
2019-05-29T03:22:42.097Z,1.57
2019-05-29T03:25:12.132Z,1.60
2019-05-29T03:27:43.801Z,1.13
2019-05-29T03:30:12.518Z,1.43
2019-05-29T03:32:47.334Z,1.40
2019-05-29T03:35:11.906Z,1.57
2019-05-29T03:37:42.056Z,1.40
2019-05-29T03:40:13.480Z,1.97
2019-05-29T03:42:42.125Z,1.73
2019-05-29T03:45:13.560Z,1.13
2019-05-29T03:47:42.219Z,1.53
2019-05-29T03:50:15.826Z,1.57
2019-05-29T03:52:44.395Z,1.40
2019-05-29T03:55:13.182Z,1.40
2019-05-29T03:57:41.835Z,1.10
2019-05-29T04:00:12.066Z,1.33
2019-05-29T04:02:44.178Z,1.40
2019-05-29T04:05:12.884Z,1.40
2019-05-29T04:07:41.832Z,1.23
2019-05-29T04:10:11.953Z,1.57
2019-05-29T04:12:42.088Z,1.40
2019-05-29T04:15:13.759Z,1.43
2019-05-29T04:17:43.616Z,1.40
2019-05-29T04:20:12.743Z,1.70
2019-05-29T04:22:45.544Z,1.67
2019-05-29T04:25:14.786Z,1.80
2019-05-29T04:27:43.808Z,1.30
2019-05-29T04:30:13.041Z,2.17
2019-05-29T04:32:41.736Z,1.80
2019-05-29T04:35:10.499Z,1.90
2019-05-29T04:37:40.073Z,1.77
2019-05-29T04:40:09.222Z,1.30
2019-05-29T04:42:39.889Z,1.40
2019-05-29T04:45:08.770Z,1.90
2019-05-29T04:47:38.870Z,1.80
2019-05-29T04:50:07.881Z,2.00
2019-05-29T04:52:37.837Z,1.47
2019-05-29T04:55:07.215Z,2.63
2019-05-29T04:57:37.101Z,1.83
2019-05-29T05:00:09.566Z,1.30
2019-05-29T05:02:39.279Z,1.60
2019-05-29T05:05:10.360Z,1.70
2019-05-29T05:07:39.642Z,1.50
2019-05-29T05:10:08.656Z,2.10
2019-05-29T05:12:40.069Z,1.50
2019-05-29T05:15:10.018Z,2.40
2019-05-29T05:17:40.435Z,1.77
2019-05-29T05:20:09.475Z,2.70
2019-05-29T05:22:41.070Z,1.83
2019-05-29T05:25:11.237Z,2.30
2019-05-29T05:27:41.722Z,2.07
2019-05-29T05:30:10.733Z,2.17
2019-05-29T05:32:40.950Z,1.43
2019-05-29T05:35:14.304Z,2.07
2019-05-29T05:37:41.645Z,1.67
2019-05-29T05:40:10.707Z,1.63
2019-05-29T05:42:42.001Z,1.47
2019-05-29T05:45:12.225Z,1.60
2019-05-29T05:47:56.429Z,1.57
2019-05-29T05:50:14.672Z,1.47
2019-05-29T05:52:43.250Z,2.23
2019-05-29T05:55:12.103Z,1.20
2019-05-29T05:57:41.935Z,1.40
2019-05-29T06:00:12.609Z,1.50
2019-05-29T06:02:42.127Z,2.00
2019-05-29T06:05:14.028Z,1.33
2019-05-29T06:07:42.659Z,1.50
2019-05-29T06:10:11.866Z,1.50
2019-05-29T06:12:40.703Z,2.00
2019-05-29T06:15:10.070Z,1.23
2019-05-29T06:17:40.778Z,1.63
2019-05-29T06:20:09.867Z,1.50
2019-05-29T06:22:39.282Z,1.13
2019-05-29T06:25:10.799Z,1.60
2019-05-29T06:27:43.362Z,1.20
2019-05-29T06:30:12.490Z,1.00
2019-05-29T06:32:41.602Z,1.43
2019-05-29T06:35:10.496Z,1.67
2019-05-29T06:37:39.618Z,1.20
2019-05-29T06:40:12.230Z,1.50
2019-05-29T06:42:44.226Z,1.30
2019-05-29T06:45:13.766Z,1.27
2019-05-29T06:47:42.828Z,1.00
2019-05-29T06:50:11.994Z,2.00
2019-05-29T06:52:43.606Z,1.23
2019-05-29T06:55:12.278Z,1.00
2019-05-29T06:57:44.505Z,1.43
2019-05-29T07:00:13.166Z,1.00
2019-05-29T07:02:42.624Z,1.23
2019-05-29T07:05:12.887Z,1.30
2019-05-29T07:07:42.484Z,1.13
2019-05-29T07:10:11.445Z,1.17
2019-05-29T07:12:44.377Z,1.30
2019-05-29T07:15:13.458Z,1.60
2019-05-29T07:17:42.570Z,1.10
2019-05-29T07:20:11.503Z,1.63
2019-05-29T07:22:43.106Z,1.27
2019-05-29T07:25:11.749Z,1.23
2019-05-29T07:27:40.831Z,1.63
2019-05-29T07:30:11.210Z,1.20
2019-05-29T07:32:42.824Z,1.20
2019-05-29T07:35:12.058Z,1.10
2019-05-29T07:37:43.861Z,1.13
2019-05-29T07:40:13.027Z,1.60
2019-05-29T07:42:47.435Z,1.00
2019-05-29T07:45:12.559Z,2.07
2019-05-29T07:47:42.548Z,1.73
2019-05-29T07:50:12.077Z,1.33
2019-05-29T07:52:43.084Z,1.40
2019-05-29T07:55:12.883Z,1.10
2019-05-29T07:57:42.830Z,1.30
2019-05-29T08:00:11.947Z,1.20
2019-05-29T08:02:43.346Z,1.57
2019-05-29T08:05:12.743Z,1.13
2019-05-29T08:07:41.529Z,1.80
2019-05-29T08:10:11.331Z,1.30
2019-05-29T08:12:49.942Z,1.33
2019-05-29T08:15:14.104Z,1.30
2019-05-29T08:17:44.071Z,2.17
2019-05-29T08:20:12.976Z,1.67
2019-05-29T08:22:42.382Z,1.53
2019-05-29T08:25:11.266Z,1.47
2019-05-29T08:27:42.621Z,1.67
2019-05-29T08:30:13.334Z,1.77
2019-05-29T08:32:43.670Z,1.93
2019-05-29T08:35:12.529Z,1.77
2019-05-29T08:37:41.213Z,1.33
2019-05-29T08:40:11.293Z,1.90
2019-05-29T08:42:41.082Z,1.30
2019-05-29T08:45:13.076Z,1.67
2019-05-29T08:47:41.815Z,1.10
2019-05-29T08:50:18.227Z,1.07
2019-05-29T08:52:41.783Z,1.30
2019-05-29T08:55:13.865Z,1.70
2019-05-29T08:57:44.109Z,1.70
2019-05-29T09:00:14.240Z,1.10
2019-05-29T09:02:43.027Z,1.00
2019-05-29T09:05:12.253Z,1.00
2019-05-29T09:07:45.870Z,1.40
2019-05-29T09:10:14.911Z,1.23
2019-05-29T09:12:49.414Z,1.37
2019-05-29T09:15:20.862Z,1.50
2019-05-29T09:17:45.134Z,1.50
2019-05-29T09:20:31.055Z,1.13
2019-05-29T09:22:45.238Z,1.20
2019-05-29T09:25:15.334Z,1.60
2019-05-29T09:27:44.226Z,1.47
2019-05-29T09:30:14.949Z,1.60
2019-05-29T09:32:50.377Z,1.10
2019-05-29T09:35:16.091Z,1.60
2019-05-29T09:37:45.131Z,1.10
2019-05-29T09:40:20.837Z,1.53
2019-05-29T09:42:49.827Z,0.90
2019-05-29T09:45:19.622Z,1.13
2019-05-29T09:47:48.829Z,1.23
2019-05-29T09:50:18.613Z,1.17
2019-05-29T09:52:48.057Z,1.90
2019-05-29T09:55:17.195Z,1.40
2019-05-29T09:57:45.903Z,1.50
2019-05-29T10:00:15.538Z,1.20
2019-05-29T10:02:44.250Z,1.30
2019-05-29T10:05:13.918Z,1.23
2019-05-29T10:07:42.597Z,1.10
2019-05-29T10:10:12.951Z,1.10
2019-05-29T10:12:41.657Z,1.60
2019-05-29T10:15:11.813Z,1.23
2019-05-29T10:17:40.975Z,1.40
2019-05-29T10:20:11.432Z,1.30
2019-05-29T10:22:43.208Z,1.33
2019-05-29T10:25:14.083Z,1.40
2019-05-29T10:27:42.706Z,1.13
2019-05-29T10:30:13.466Z,2.03
2019-05-29T10:32:42.823Z,1.80
2019-05-29T10:35:12.845Z,1.13
2019-05-29T10:37:42.791Z,1.80
2019-05-29T10:40:13.417Z,1.40
2019-05-29T10:42:43.085Z,1.53
2019-05-29T10:45:12.890Z,1.37
2019-05-29T10:47:43.231Z,1.40
2019-05-29T10:50:12.425Z,1.57
2019-05-29T10:52:41.012Z,1.43
2019-05-29T10:55:11.265Z,1.43
2019-05-29T10:57:41.333Z,1.43
2019-05-29T11:00:11.479Z,1.27
2019-05-29T11:02:43.279Z,1.30
2019-05-29T11:05:12.048Z,1.20
2019-05-29T11:07:42.243Z,1.20
2019-05-29T11:10:14.547Z,1.03
2019-05-29T11:12:43.667Z,1.33
2019-05-29T11:15:21.222Z,0.90
2019-05-29T11:17:43.138Z,1.40
2019-05-29T11:20:12.548Z,1.20
2019-05-29T11:22:41.303Z,1.30
2019-05-29T11:25:22.516Z,1.60
2019-05-29T11:27:42.022Z,1.33
2019-05-29T11:30:12.302Z,1.43
2019-05-29T11:32:41.364Z,1.70
2019-05-29T11:35:12.981Z,1.20
2019-05-29T11:37:41.745Z,1.30
2019-05-29T11:40:10.982Z,2.10
2019-05-29T11:42:39.816Z,1.30
2019-05-29T11:45:12.686Z,1.43
2019-05-29T11:47:41.468Z,1.07
2019-05-29T11:50:19.184Z,1.20
2019-05-29T11:52:43.564Z,1.50
2019-05-29T11:55:12.638Z,1.50
2019-05-29T11:57:42.087Z,1.23
2019-05-29T12:00:20.293Z,1.53
2019-05-29T12:02:46.037Z,1.50
2019-05-29T12:05:15.980Z,1.60
2019-05-29T12:07:44.804Z,1.07
2019-05-29T12:10:14.859Z,1.63
2019-05-29T12:12:43.684Z,1.60
2019-05-29T12:15:16.612Z,1.47
2019-05-29T12:17:43.673Z,1.57
2019-05-29T12:20:27.131Z,1.40
2019-05-29T12:23:07.191Z,1.40
2019-05-29T12:25:14.173Z,1.10
2019-05-29T12:27:42.926Z,1.40
2019-05-29T12:30:13.244Z,1.10
2019-05-29T12:32:42.289Z,1.17
2019-05-29T12:35:11.227Z,1.53
2019-05-29T12:37:41.379Z,1.53
2019-05-29T12:40:11.492Z,1.43
2019-05-29T12:42:44.894Z,1.47
2019-05-29T12:45:13.896Z,1.17
2019-05-29T12:47:42.803Z,1.30
2019-05-29T12:50:13.770Z,1.20
2019-05-29T12:52:42.906Z,1.10
2019-05-29T12:55:13.355Z,1.33
2019-05-29T12:57:42.179Z,1.43
2019-05-29T13:00:16.219Z,1.30
2019-05-29T13:02:45.036Z,3.00
2019-05-29T13:05:20.421Z,1.30
2019-05-29T13:07:47.272Z,1.20
2019-05-29T13:10:30.088Z,1.50
2019-05-29T13:12:47.756Z,1.30
2019-05-29T13:15:17.594Z,1.70
2019-05-29T13:17:46.318Z,1.23
2019-05-29T13:20:21.556Z,1.50
2019-05-29T13:22:45.993Z,2.00
2019-05-29T13:25:15.319Z,1.63
2019-05-29T13:27:44.135Z,1.20
2019-05-29T13:30:14.484Z,1.70
2019-05-29T13:32:43.506Z,1.40
2019-05-29T13:35:12.928Z,1.33
2019-05-29T13:37:41.649Z,1.20
2019-05-29T13:40:11.303Z,1.63
2019-05-29T13:42:41.445Z,1.60
2019-05-29T13:45:17.987Z,1.23
2019-05-29T13:47:42.158Z,1.27
2019-05-29T13:50:14.569Z,1.40
2019-05-29T13:52:43.383Z,1.30
2019-05-29T13:55:12.717Z,1.50
2019-05-29T13:57:41.285Z,1.30
2019-05-29T14:00:33.904Z,1.10
2019-05-29T14:02:43.997Z,1.10
2019-05-29T14:05:15.388Z,1.43
2019-05-29T14:07:44.067Z,1.80
2019-05-29T14:10:13.730Z,1.20
2019-05-29T14:12:42.509Z,1.20
2019-05-29T14:15:12.473Z,1.10
2019-05-29T14:17:41.394Z,1.27
2019-05-29T14:20:10.756Z,1.47
2019-05-29T14:22:43.002Z,1.60
2019-05-29T14:25:12.342Z,1.03
2019-05-29T14:27:44.128Z,1.30
2019-05-29T14:30:14.067Z,1.20
2019-05-29T14:32:42.884Z,1.30
2019-05-29T14:35:13.327Z,1.40
2019-05-29T14:37:42.257Z,1.03
2019-05-29T14:40:14.651Z,1.30
2019-05-29T14:42:43.379Z,1.37
2019-05-29T14:45:12.735Z,1.53
2019-05-29T14:47:41.434Z,1.20
2019-05-29T14:50:11.216Z,1.60
2019-05-29T14:52:41.238Z,1.30
2019-05-29T14:55:16.057Z,1.30
2019-05-29T14:57:41.845Z,1.27
2019-05-29T15:00:24.366Z,1.60
2019-05-29T15:02:43.690Z,1.17
2019-05-29T15:05:14.728Z,1.40
2019-05-29T15:07:43.811Z,1.20
2019-05-29T15:10:26.200Z,1.33
2019-05-29T15:12:43.353Z,1.23
2019-05-29T15:15:16.250Z,1.87
2019-05-29T15:17:43.974Z,1.20
2019-05-29T15:20:14.839Z,1.27
2019-05-29T15:22:43.640Z,1.20
2019-05-29T15:25:22.737Z,1.30
2019-05-29T15:27:43.209Z,1.00
2019-05-29T15:30:18.095Z,1.40
2019-05-29T15:32:43.141Z,1.10
2019-05-29T15:35:16.013Z,1.53
2019-05-29T15:37:42.771Z,1.30
2019-05-29T15:40:12.887Z,1.00
2019-05-29T15:42:41.754Z,1.43
2019-05-29T15:45:14.035Z,1.57
2019-05-29T15:47:42.987Z,1.10
2019-05-29T15:50:13.659Z,1.30
2019-05-29T15:52:42.971Z,1.47
2019-05-29T15:55:29.536Z,1.27
2019-05-29T15:57:43.730Z,1.37
2019-05-29T16:00:13.921Z,1.03
2019-05-29T16:02:42.626Z,1.03
2019-05-29T16:05:13.383Z,1.93
2019-05-29T16:07:42.413Z,1.30
2019-05-29T16:10:15.250Z,1.17
2019-05-29T16:12:42.936Z,1.13
2019-05-29T16:15:13.229Z,1.40
2019-05-29T16:17:42.147Z,1.07
2019-05-29T16:20:14.435Z,1.30
2019-05-29T16:22:43.237Z,1.10
2019-05-29T16:25:12.852Z,1.30
2019-05-29T16:27:41.841Z,1.00
2019-05-29T16:30:13.440Z,1.20
2019-05-29T16:32:42.317Z,1.30
2019-05-29T16:35:12.922Z,1.33
2019-05-29T16:37:41.794Z,1.33
2019-05-29T16:40:11.865Z,1.20
2019-05-29T16:42:42.138Z,1.60
2019-05-29T16:45:14.485Z,1.50
2019-05-29T16:47:43.136Z,1.20
2019-05-29T16:50:13.022Z,1.50
2019-05-29T16:52:41.995Z,1.20
2019-05-29T16:55:12.969Z,1.30
2019-05-29T16:57:41.672Z,1.50
2019-05-29T17:00:13.650Z,1.63
2019-05-29T17:02:42.466Z,1.00
2019-05-29T17:05:11.343Z,1.37
2019-05-29T17:07:40.083Z,1.50
2019-05-29T17:10:10.728Z,1.00
2019-05-29T17:12:39.589Z,1.57
2019-05-29T17:15:12.322Z,1.10
2019-05-29T17:17:41.011Z,1.10
2019-05-29T17:20:10.697Z,1.70
2019-05-29T17:22:42.184Z,1.23
2019-05-29T17:25:14.788Z,1.37
2019-05-29T17:27:43.544Z,1.30
2019-05-29T17:30:12.311Z,1.70
2019-05-29T17:32:43.764Z,1.40
2019-05-29T17:35:12.436Z,1.13
2019-05-29T17:37:41.011Z,1.80
2019-05-29T17:40:11.213Z,1.63
2019-05-29T17:42:41.306Z,1.50
2019-05-29T17:45:14.286Z,1.70
2019-05-29T17:47:43.852Z,1.27
2019-05-29T17:50:12.917Z,1.27
2019-05-29T17:52:41.563Z,1.67
2019-05-29T17:55:10.927Z,1.20
2019-05-29T17:57:39.584Z,1.73
2019-05-29T18:00:11.618Z,1.30
2019-05-29T18:02:51.503Z,1.40
2019-05-29T18:05:12.567Z,0.90
2019-05-29T18:07:41.372Z,1.40
2019-05-29T18:10:10.729Z,1.13
2019-05-29T18:12:42.462Z,1.13
2019-05-29T18:15:11.609Z,1.33
2019-05-29T18:17:40.257Z,1.13
2019-05-29T18:20:14.430Z,1.60
2019-05-29T18:22:41.634Z,1.27
2019-05-29T18:25:10.782Z,1.10
2019-05-29T18:27:39.616Z,1.33
2019-05-29T18:30:10.269Z,1.33
2019-05-29T18:32:40.655Z,1.60
2019-05-29T18:35:09.913Z,1.20
2019-05-29T18:37:38.681Z,1.37
2019-05-29T18:40:12.442Z,1.37
2019-05-29T18:42:40.522Z,1.00
2019-05-29T18:45:20.191Z,1.37
2019-05-29T18:47:42.887Z,1.17
2019-05-29T18:50:13.506Z,0.90
2019-05-29T18:52:42.160Z,1.30
2019-05-29T18:55:14.094Z,1.20
2019-05-29T18:57:42.748Z,1.50
2019-05-29T19:00:12.759Z,2.50
2019-05-29T19:02:41.418Z,2.50
2019-05-29T19:05:12.763Z,2.80
2019-05-29T19:07:41.439Z,2.00
2019-05-29T19:10:10.753Z,1.43
2019-05-29T19:12:42.406Z,1.40
2019-05-29T19:15:12.581Z,1.53
2019-05-29T19:17:41.228Z,1.50
2019-05-29T19:20:11.788Z,1.80
2019-05-29T19:22:40.459Z,1.97
2019-05-29T19:25:10.637Z,1.37
2019-05-29T19:27:42.577Z,1.40
2019-05-29T19:30:11.954Z,1.70
2019-05-29T19:32:42.099Z,1.10
2019-05-29T19:35:13.804Z,1.33
2019-05-29T19:37:42.730Z,1.57
2019-05-29T19:40:12.184Z,2.30
2019-05-29T19:42:43.781Z,1.87
2019-05-29T19:45:12.638Z,1.53
2019-05-29T19:47:41.372Z,2.00
2019-05-29T19:50:11.861Z,2.20
2019-05-29T19:52:42.094Z,2.17
2019-05-29T19:55:14.635Z,1.60
2019-05-29T19:57:56.164Z,1.80
2019-05-29T20:00:14.284Z,1.70
2019-05-29T20:02:42.940Z,2.10
2019-05-29T20:05:12.089Z,2.20
2019-05-29T20:07:44.017Z,1.77
2019-05-29T20:10:12.874Z,2.90
2019-05-29T20:12:41.534Z,2.23
2019-05-29T20:15:13.118Z,2.90
2019-05-29T20:17:41.773Z,2.07
2019-05-29T20:20:12.048Z,1.80
2019-05-29T20:22:43.571Z,2.40
2019-05-29T20:25:13.990Z,2.20
2019-05-29T20:27:42.810Z,2.20
2019-05-29T20:30:18.728Z,2.47
2019-05-29T20:32:47.937Z,2.30
2019-05-29T20:35:17.763Z,2.37
2019-05-29T20:37:46.706Z,2.43
2019-05-29T20:40:17.064Z,2.60
2019-05-29T20:42:45.717Z,2.50
2019-05-29T20:45:15.443Z,2.40
2019-05-29T20:47:44.088Z,2.63
2019-05-29T20:50:13.472Z,2.73
2019-05-29T20:52:42.108Z,2.53
2019-05-29T20:55:12.837Z,2.60
2019-05-29T20:57:42.156Z,2.33
2019-05-29T21:00:12.362Z,2.77
2019-05-29T21:02:42.559Z,2.40
2019-05-29T21:05:11.882Z,2.20
2019-05-29T21:07:43.008Z,2.20
2019-05-29T21:10:12.752Z,3.17
2019-05-29T21:12:45.382Z,2.40
2019-05-29T21:15:12.546Z,3.40
2019-05-29T21:17:42.101Z,3.80
2019-05-29T21:20:14.156Z,2.90
2019-05-29T21:22:43.040Z,3.17
2019-05-29T21:25:18.021Z,2.80
2019-05-29T21:27:46.716Z,3.13
2019-05-29T21:30:13.123Z,3.33
2019-05-29T21:32:42.084Z,2.93
2019-05-29T21:35:12.399Z,3.70
2019-05-29T21:37:42.423Z,3.50
2019-05-29T21:40:11.408Z,2.93
2019-05-29T21:42:42.936Z,3.37
2019-05-29T21:45:12.893Z,3.10
2019-05-29T21:47:41.543Z,3.30
2019-05-29T21:50:11.879Z,4.23
2019-05-29T21:52:41.920Z,3.30
2019-05-29T21:55:10.973Z,3.60
2019-05-29T21:57:42.328Z,3.60
2019-05-29T22:00:16.549Z,3.77
2019-05-29T22:02:46.409Z,2.90
2019-05-29T22:05:15.301Z,2.80
2019-05-29T22:07:44.805Z,3.33
2019-05-29T22:10:14.578Z,3.53
2019-05-29T22:12:43.219Z,3.50
2019-05-29T22:15:12.282Z,3.00
2019-05-29T22:17:41.013Z,3.90
2019-05-29T22:20:11.314Z,3.33
2019-05-29T22:22:41.418Z,3.17
2019-05-29T22:25:12.877Z,3.37
2019-05-29T22:27:41.523Z,3.07
2019-05-29T22:30:10.908Z,3.20
2019-05-29T22:32:39.566Z,3.00
2019-05-29T22:35:09.215Z,3.13
2019-05-29T22:37:37.952Z,4.00
2019-05-29T22:40:12.191Z,3.70
2019-05-29T22:42:43.805Z,4.13
2019-05-29T22:45:13.623Z,3.77
2019-05-29T22:47:42.783Z,3.57
2019-05-29T22:50:12.314Z,4.33
2019-05-29T22:52:44.444Z,3.67
2019-05-29T22:55:13.489Z,3.50
2019-05-29T22:57:42.445Z,4.63
2019-05-29T23:00:12.315Z,4.67
2019-05-29T23:02:44.137Z,4.00
2019-05-29T23:05:13.133Z,5.27
2019-05-29T23:07:42.251Z,4.13
2019-05-29T23:10:14.035Z,4.20
2019-05-29T23:12:42.788Z,4.20
2019-05-29T23:15:11.729Z,4.30
2019-05-29T23:17:40.767Z,3.70
2019-05-29T23:20:11.928Z,3.43
2019-05-29T23:22:42.146Z,3.83
2019-05-29T23:25:14.142Z,3.00
2019-05-29T23:27:42.971Z,2.33
2019-05-29T23:30:12.130Z,2.80
2019-05-29T23:32:43.862Z,2.90
2019-05-29T23:35:12.668Z,2.73
2019-05-29T23:37:42.142Z,3.47
2019-05-29T23:40:32.248Z,2.33
2019-05-29T23:43:01.551Z,1.97
2019-05-29T23:45:30.337Z,1.93
2019-05-29T23:47:59.636Z,2.30
2019-05-29T23:50:28.319Z,2.00
2019-05-29T23:52:57.903Z,2.30
2019-05-29T23:55:26.693Z,2.23
2019-05-29T23:57:55.720Z,2.20
